DLH16PY EGKK-EDDF
Flight info
| Callsign | DLH16PY |
|---|---|
| Flight time | 1h 6m |
| Altitude | 35000 |
| Route | DVR UL9 KONAN UL607 KOK DCT REMBA UL607 SPI T180 NIVNU/N0389F230 T847 IMCOM IMCOM1B |
| Aircraft | A20N/M-SDE2E3FGHIRWXY/LB1 |
Departure
| Time | 2026-05-06 19:46 |
|---|---|
| Airport | London Gatwick Airport (EGKK) |
Arrival
| Time | 2026-05-06 20:52 |
|---|---|
| Airport | Frankfurt Main Airport (EDDF) |
| Time | Latitude | Longitude | Altitude | Speed | Heading |
|---|---|---|---|---|---|
| 2026-05-06 19:04 | 51.15487 | -0.16965 | 200 ft | 0 kts | 348° |
| 2026-05-06 19:30 | 51.15483 | -0.16964 | 200 ft | 2 kts | 349° |
| 2026-05-06 19:30 | 51.15469 | -0.16959 | 200 ft | 2 kts | 348° |
| 2026-05-06 19:31 | 51.15454 | -0.16955 | 200 ft | 2 kts | 351° |
| 2026-05-06 19:31 | 51.15442 | -0.16951 | 200 ft | 0 kts | 348° |
| 2026-05-06 19:31 | 51.15435 | -0.16944 | 200 ft | 0 kts | 265° |
| 2026-05-06 19:32 | 51.15435 | -0.16946 | 200 ft | 1 kts | 270° |
| 2026-05-06 19:32 | 51.15434 | -0.16957 | 200 ft | 1 kts | 256° |
| 2026-05-06 19:32 | 51.15433 | -0.16963 | 200 ft | 0 kts | 256° |
| 2026-05-06 19:35 | 51.15432 | -0.16971 | 200 ft | 1 kts | 256° |
| 2026-05-06 19:35 | 51.15427 | -0.17000 | 200 ft | 3 kts | 256° |
| 2026-05-06 19:35 | 51.15420 | -0.17048 | 200 ft | 5 kts | 259° |
| 2026-05-06 19:35 | 51.15406 | -0.17142 | 200 ft | 7 kts | 249° |
| 2026-05-06 19:36 | 51.15391 | -0.17199 | 200 ft | 8 kts | 245° |
| 2026-05-06 19:36 | 51.15366 | -0.17297 | 199 ft | 10 kts | 251° |
| 2026-05-06 19:36 | 51.15327 | -0.17368 | 200 ft | 8 kts | 189° |
| 2026-05-06 19:36 | 51.15292 | -0.17363 | 200 ft | 0 kts | 187° |
| 2026-05-06 19:37 | 51.15291 | -0.17367 | 200 ft | 0 kts | 255° |
| 2026-05-06 19:37 | 51.15292 | -0.17375 | 200 ft | 0 kts | 277° |
| 2026-05-06 19:37 | 51.15293 | -0.17395 | 200 ft | 6 kts | 275° |
| 2026-05-06 19:37 | 51.15290 | -0.17494 | 200 ft | 10 kts | 261° |
| 2026-05-06 19:38 | 51.15275 | -0.17614 | 200 ft | 11 kts | 257° |
| 2026-05-06 19:38 | 51.15255 | -0.17747 | 199 ft | 12 kts | 256° |
| 2026-05-06 19:38 | 51.15236 | -0.17888 | 200 ft | 13 kts | 258° |
| 2026-05-06 19:38 | 51.15215 | -0.18044 | 199 ft | 14 kts | 258° |
| 2026-05-06 19:39 | 51.15200 | -0.18157 | 199 ft | 15 kts | 258° |
| 2026-05-06 19:39 | 51.15179 | -0.18329 | 199 ft | 16 kts | 259° |
| 2026-05-06 19:39 | 51.15157 | -0.18512 | 199 ft | 17 kts | 259° |
| 2026-05-06 19:39 | 51.15132 | -0.18699 | 199 ft | 17 kts | 257° |
| 2026-05-06 19:40 | 51.15104 | -0.18907 | 200 ft | 20 kts | 258° |
| 2026-05-06 19:40 | 51.15074 | -0.19133 | 200 ft | 21 kts | 258° |
| 2026-05-06 19:40 | 51.15041 | -0.19368 | 200 ft | 21 kts | 258° |
| 2026-05-06 19:40 | 51.15011 | -0.19595 | 200 ft | 21 kts | 258° |
| 2026-05-06 19:41 | 51.14978 | -0.19825 | 200 ft | 21 kts | 257° |
| 2026-05-06 19:41 | 51.14946 | -0.20053 | 200 ft | 20 kts | 258° |
| 2026-05-06 19:41 | 51.14916 | -0.20277 | 201 ft | 20 kts | 257° |
| 2026-05-06 19:41 | 51.14884 | -0.20500 | 201 ft | 20 kts | 257° |
| 2026-05-06 19:42 | 51.14856 | -0.20711 | 201 ft | 19 kts | 257° |
| 2026-05-06 19:42 | 51.14826 | -0.20921 | 202 ft | 19 kts | 259° |
| 2026-05-06 19:42 | 51.14799 | -0.21116 | 203 ft | 13 kts | 255° |
| 2026-05-06 19:42 | 51.14771 | -0.21255 | 203 ft | 13 kts | 258° |
| 2026-05-06 19:43 | 51.14721 | -0.21368 | 203 ft | 14 kts | 190° |
| 2026-05-06 19:43 | 51.14645 | -0.21337 | 203 ft | 10 kts | 159° |
| 2026-05-06 19:43 | 51.14619 | -0.21326 | 203 ft | 0 kts | 169° |
| 2026-05-06 19:44 | 51.14597 | -0.21318 | 203 ft | 7 kts | 166° |
| 2026-05-06 19:44 | 51.14532 | -0.21250 | 203 ft | 15 kts | 120° |
| 2026-05-06 19:44 | 51.14523 | -0.21147 | 203 ft | 5 kts | 80° |
| 2026-05-06 19:45 | 51.14524 | -0.21131 | 203 ft | 0 kts | 79° |
| 2026-05-06 19:45 | 51.14529 | -0.21092 | 203 ft | 24 kts | 78° |
| 2026-05-06 19:45 | 51.14625 | -0.20399 | 201 ft | 100 kts | 77° |
| 2026-05-06 19:45 | 51.14818 | -0.18999 | 201 ft | 159 kts | 78° |
| 2026-05-06 19:46 | 51.15083 | -0.17126 | 608 ft | 176 kts | 76° |
| 2026-05-06 19:46 | 51.15344 | -0.15331 | 1506 ft | 166 kts | 76° |
| 2026-05-06 19:46 | 51.15573 | -0.13604 | 2312 ft | 162 kts | 76° |
| 2026-05-06 19:46 | 51.15810 | -0.11795 | 2737 ft | 178 kts | 76° |
| 2026-05-06 19:47 | 51.16169 | -0.09071 | 3335 ft | 201 kts | 77° |
| 2026-05-06 19:47 | 51.16364 | -0.07577 | 3593 ft | 216 kts | 77° |
| 2026-05-06 19:47 | 51.16685 | -0.05105 | 4044 ft | 237 kts | 77° |
| 2026-05-06 19:47 | 51.17023 | -0.02469 | 4577 ft | 255 kts | 77° |
| 2026-05-06 19:48 | 51.17387 | 0.00368 | 5261 ft | 265 kts | 78° |
| 2026-05-06 19:48 | 51.17751 | 0.03224 | 5754 ft | 267 kts | 78° |
| 2026-05-06 19:48 | 51.18058 | 0.06167 | 5962 ft | 269 kts | 89° |
| 2026-05-06 19:48 | 51.17630 | 0.09000 | 5991 ft | 269 kts | 120° |
| 2026-05-06 19:49 | 51.16414 | 0.11257 | 6007 ft | 270 kts | 135° |
| 2026-05-06 19:49 | 51.15249 | 0.13597 | 5984 ft | 268 kts | 113° |
| 2026-05-06 19:49 | 51.14884 | 0.16436 | 5987 ft | 266 kts | 85° |
| 2026-05-06 19:49 | 51.15401 | 0.19239 | 6009 ft | 264 kts | 62° |
| 2026-05-06 19:50 | 51.16173 | 0.21868 | 5995 ft | 266 kts | 70° |
| 2026-05-06 19:50 | 51.16621 | 0.24745 | 5999 ft | 267 kts | 80° |
| 2026-05-06 19:50 | 51.16815 | 0.27651 | 5999 ft | 267 kts | 85° |
| 2026-05-06 19:50 | 51.16888 | 0.30612 | 6014 ft | 267 kts | 88° |
| 2026-05-06 19:51 | 51.16907 | 0.33582 | 6008 ft | 267 kts | 89° |
| 2026-05-06 19:51 | 51.16907 | 0.36509 | 5999 ft | 267 kts | 89° |
| 2026-05-06 19:51 | 51.16900 | 0.39480 | 6000 ft | 267 kts | 89° |
| 2026-05-06 19:51 | 51.16892 | 0.42403 | 6002 ft | 267 kts | 89° |
| 2026-05-06 19:52 | 51.16885 | 0.45362 | 5994 ft | 267 kts | 89° |
| 2026-05-06 19:52 | 51.16878 | 0.48336 | 5990 ft | 267 kts | 89° |
| 2026-05-06 19:52 | 51.16869 | 0.51260 | 5997 ft | 266 kts | 89° |
| 2026-05-06 19:52 | 51.16861 | 0.54223 | 6000 ft | 266 kts | 89° |
| 2026-05-06 19:53 | 51.16851 | 0.57141 | 5991 ft | 266 kts | 89° |
| 2026-05-06 19:53 | 51.16840 | 0.60099 | 5994 ft | 266 kts | 89° |
| 2026-05-06 19:53 | 51.16828 | 0.63020 | 5994 ft | 266 kts | 89° |
| 2026-05-06 19:53 | 51.16815 | 0.65992 | 5993 ft | 267 kts | 89° |
| 2026-05-06 19:54 | 51.16800 | 0.68916 | 5993 ft | 267 kts | 89° |
| 2026-05-06 19:54 | 51.16785 | 0.71886 | 5991 ft | 267 kts | 89° |
| 2026-05-06 19:54 | 51.16770 | 0.74811 | 5992 ft | 267 kts | 89° |
| 2026-05-06 19:54 | 51.16754 | 0.77779 | 5996 ft | 267 kts | 89° |
| 2026-05-06 19:55 | 51.16738 | 0.80706 | 6008 ft | 269 kts | 89° |
| 2026-05-06 19:55 | 51.16721 | 0.83733 | 6492 ft | 277 kts | 89° |
| 2026-05-06 19:55 | 51.16703 | 0.86731 | 7501 ft | 275 kts | 89° |
| 2026-05-06 19:55 | 51.16683 | 0.89780 | 8385 ft | 278 kts | 89° |
| 2026-05-06 19:56 | 51.16663 | 0.92847 | 9161 ft | 284 kts | 89° |
| 2026-05-06 19:56 | 51.16641 | 0.96019 | 9931 ft | 289 kts | 89° |
| 2026-05-06 19:56 | 51.16618 | 0.99214 | 10596 ft | 298 kts | 89° |
| 2026-05-06 19:56 | 51.16593 | 1.02616 | 11010 ft | 315 kts | 89° |
| 2026-05-06 19:57 | 51.16565 | 1.06225 | 11375 ft | 334 kts | 89° |
| 2026-05-06 19:57 | 51.16535 | 1.09969 | 11736 ft | 350 kts | 89° |
| 2026-05-06 19:57 | 51.16501 | 1.13911 | 12366 ft | 358 kts | 89° |
| 2026-05-06 19:57 | 51.16466 | 1.17835 | 13097 ft | 362 kts | 89° |
| 2026-05-06 19:58 | 51.16428 | 1.21867 | 13806 ft | 366 kts | 90° |
| 2026-05-06 19:58 | 51.16388 | 1.25889 | 14486 ft | 370 kts | 90° |
| 2026-05-06 19:58 | 51.16347 | 1.30017 | 15157 ft | 374 kts | 90° |
| 2026-05-06 19:58 | 51.16305 | 1.34123 | 15820 ft | 377 kts | 90° |
| 2026-05-06 19:59 | 51.16180 | 1.38329 | 16464 ft | 382 kts | 93° |
| 2026-05-06 19:59 | 51.15989 | 1.42514 | 17072 ft | 386 kts | 93° |
| 2026-05-06 19:59 | 51.15783 | 1.46804 | 17669 ft | 390 kts | 94° |
| 2026-05-06 19:59 | 51.15572 | 1.51128 | 18269 ft | 393 kts | 94° |
| 2026-05-06 20:00 | 51.15361 | 1.55431 | 18853 ft | 397 kts | 94° |
| 2026-05-06 20:00 | 51.15147 | 1.59796 | 19420 ft | 400 kts | 94° |
| 2026-05-06 20:00 | 51.14928 | 1.64231 | 19993 ft | 403 kts | 94° |
| 2026-05-06 20:00 | 51.14706 | 1.68698 | 20547 ft | 407 kts | 95° |
| 2026-05-06 20:01 | 51.14481 | 1.73205 | 21099 ft | 410 kts | 95° |
| 2026-05-06 20:01 | 51.14254 | 1.77708 | 21648 ft | 413 kts | 95° |
| 2026-05-06 20:01 | 51.14021 | 1.82292 | 22179 ft | 417 kts | 95° |
| 2026-05-06 20:01 | 51.13785 | 1.86859 | 22700 ft | 420 kts | 95° |
| 2026-05-06 20:02 | 51.13544 | 1.91501 | 23224 ft | 423 kts | 95° |
| 2026-05-06 20:02 | 51.13300 | 1.96181 | 23742 ft | 426 kts | 95° |
| 2026-05-06 20:02 | 51.13055 | 2.00852 | 24239 ft | 428 kts | 95° |
| 2026-05-06 20:02 | 51.12809 | 2.05574 | 24731 ft | 431 kts | 95° |
| 2026-05-06 20:03 | 51.12560 | 2.10293 | 25184 ft | 434 kts | 95° |
| 2026-05-06 20:03 | 51.12303 | 2.15111 | 25639 ft | 437 kts | 95° |
| 2026-05-06 20:03 | 51.12046 | 2.19879 | 26084 ft | 440 kts | 95° |
| 2026-05-06 20:03 | 51.11780 | 2.24756 | 26513 ft | 442 kts | 95° |
| 2026-05-06 20:04 | 51.11514 | 2.29598 | 26931 ft | 445 kts | 95° |
| 2026-05-06 20:04 | 51.11241 | 2.34519 | 27413 ft | 446 kts | 95° |
| 2026-05-06 20:04 | 51.10969 | 2.39398 | 28001 ft | 443 kts | 95° |
| 2026-05-06 20:04 | 51.10699 | 2.44195 | 28550 ft | 441 kts | 95° |
| 2026-05-06 20:05 | 51.10422 | 2.49070 | 29060 ft | 440 kts | 95° |
| 2026-05-06 20:05 | 51.10146 | 2.53883 | 29543 ft | 439 kts | 95° |
| 2026-05-06 20:05 | 51.09866 | 2.58663 | 30014 ft | 437 kts | 96° |
| 2026-05-06 20:05 | 51.09460 | 2.63485 | 30484 ft | 436 kts | 99° |
| 2026-05-06 20:06 | 51.08888 | 2.68156 | 30914 ft | 435 kts | 103° |
| 2026-05-06 20:06 | 51.08129 | 2.72841 | 31298 ft | 434 kts | 106° |
| 2026-05-06 20:06 | 51.07304 | 2.77425 | 31642 ft | 433 kts | 107° |
| 2026-05-06 20:06 | 51.06465 | 2.82027 | 31988 ft | 433 kts | 107° |
| 2026-05-06 20:07 | 51.05634 | 2.86569 | 32337 ft | 433 kts | 107° |
| 2026-05-06 20:07 | 51.04793 | 2.91168 | 32692 ft | 432 kts | 106° |
| 2026-05-06 20:07 | 51.03964 | 2.95695 | 33040 ft | 431 kts | 106° |
| 2026-05-06 20:07 | 51.03126 | 3.00266 | 33364 ft | 430 kts | 106° |
| 2026-05-06 20:08 | 51.02298 | 3.04775 | 33633 ft | 431 kts | 106° |
| 2026-05-06 20:08 | 51.01457 | 3.09347 | 33873 ft | 432 kts | 106° |
| 2026-05-06 20:08 | 51.00623 | 3.13871 | 34119 ft | 433 kts | 106° |
| 2026-05-06 20:08 | 50.99773 | 3.18470 | 34356 ft | 433 kts | 106° |
| 2026-05-06 20:09 | 50.98932 | 3.23014 | 34556 ft | 434 kts | 106° |
| 2026-05-06 20:09 | 50.98079 | 3.27602 | 34753 ft | 435 kts | 106° |
| 2026-05-06 20:09 | 50.97221 | 3.32209 | 34915 ft | 436 kts | 106° |
| 2026-05-06 20:09 | 50.96361 | 3.36818 | 34931 ft | 437 kts | 106° |
| 2026-05-06 20:10 | 50.94641 | 3.45999 | 34945 ft | 437 kts | 106° |
| 2026-05-06 20:10 | 50.92909 | 3.55196 | 34962 ft | 436 kts | 106° |
| 2026-05-06 20:11 | 50.91178 | 3.64349 | 34955 ft | 437 kts | 106° |
| 2026-05-06 20:11 | 50.89428 | 3.73564 | 34962 ft | 437 kts | 107° |
| 2026-05-06 20:12 | 50.87652 | 3.82725 | 34955 ft | 438 kts | 107° |
| 2026-05-06 20:12 | 50.85876 | 3.91909 | 34947 ft | 438 kts | 107° |
| 2026-05-06 20:13 | 50.84102 | 4.01081 | 34950 ft | 438 kts | 107° |
| 2026-05-06 20:13 | 50.82320 | 4.10267 | 34949 ft | 438 kts | 107° |
| 2026-05-06 20:14 | 50.80534 | 4.19432 | 34940 ft | 438 kts | 107° |
| 2026-05-06 20:14 | 50.78746 | 4.28564 | 34952 ft | 437 kts | 107° |
| 2026-05-06 20:15 | 50.76948 | 4.37713 | 34951 ft | 437 kts | 107° |
| 2026-05-06 20:15 | 50.75140 | 4.46866 | 34950 ft | 438 kts | 107° |
| 2026-05-06 20:16 | 50.73335 | 4.55965 | 34952 ft | 438 kts | 107° |
| 2026-05-06 20:16 | 50.71507 | 4.65137 | 34944 ft | 437 kts | 108° |
| 2026-05-06 20:17 | 50.69689 | 4.74237 | 34947 ft | 437 kts | 108° |
| 2026-05-06 20:17 | 50.67857 | 4.83349 | 34947 ft | 437 kts | 108° |
| 2026-05-06 20:18 | 50.66017 | 4.92437 | 34947 ft | 437 kts | 108° |
| 2026-05-06 20:18 | 50.64162 | 5.01495 | 34939 ft | 437 kts | 108° |
| 2026-05-06 20:19 | 50.62304 | 5.10525 | 34945 ft | 437 kts | 108° |
| 2026-05-06 20:19 | 50.60431 | 5.19585 | 34942 ft | 436 kts | 108° |
| 2026-05-06 20:20 | 50.58555 | 5.28627 | 34940 ft | 436 kts | 108° |
| 2026-05-06 20:20 | 50.56667 | 5.37682 | 34941 ft | 436 kts | 108° |
| 2026-05-06 20:21 | 50.54774 | 5.46721 | 34936 ft | 436 kts | 108° |
| 2026-05-06 20:21 | 50.52879 | 5.55727 | 34934 ft | 437 kts | 109° |
| 2026-05-06 20:22 | 50.51030 | 5.64759 | 34933 ft | 437 kts | 107° |
| 2026-05-06 20:22 | 50.49330 | 5.73891 | 34928 ft | 437 kts | 107° |
| 2026-05-06 20:23 | 50.47626 | 5.83020 | 34775 ft | 437 kts | 107° |
| 2026-05-06 20:23 | 50.46777 | 5.87542 | 34581 ft | 435 kts | 107° |
| 2026-05-06 20:23 | 50.45925 | 5.92067 | 34380 ft | 432 kts | 107° |
| 2026-05-06 20:24 | 50.45071 | 5.96592 | 34114 ft | 430 kts | 108° |
| 2026-05-06 20:24 | 50.44230 | 6.01035 | 33776 ft | 428 kts | 108° |
| 2026-05-06 20:24 | 50.43382 | 6.05507 | 33331 ft | 427 kts | 108° |
| 2026-05-06 20:24 | 50.42538 | 6.09943 | 32799 ft | 429 kts | 108° |
| 2026-05-06 20:25 | 50.41693 | 6.14369 | 32178 ft | 430 kts | 108° |
| 2026-05-06 20:25 | 50.40833 | 6.18866 | 31570 ft | 431 kts | 108° |
| 2026-05-06 20:25 | 50.39970 | 6.23368 | 30946 ft | 431 kts | 108° |
| 2026-05-06 20:25 | 50.39117 | 6.27805 | 30288 ft | 430 kts | 108° |
| 2026-05-06 20:26 | 50.38250 | 6.32299 | 29608 ft | 430 kts | 108° |
| 2026-05-06 20:26 | 50.37412 | 6.36732 | 28922 ft | 431 kts | 106° |
| 2026-05-06 20:26 | 50.36716 | 6.41257 | 28198 ft | 432 kts | 102° |
| 2026-05-06 20:26 | 50.36195 | 6.45902 | 27472 ft | 434 kts | 98° |
| 2026-05-06 20:27 | 50.35856 | 6.50549 | 26758 ft | 434 kts | 96° |
| 2026-05-06 20:27 | 50.35567 | 6.55246 | 26209 ft | 431 kts | 96° |
| 2026-05-06 20:27 | 50.35286 | 6.59841 | 25730 ft | 426 kts | 96° |
| 2026-05-06 20:27 | 50.35000 | 6.64421 | 25242 ft | 422 kts | 96° |
| 2026-05-06 20:28 | 50.34710 | 6.68995 | 24743 ft | 419 kts | 96° |
| 2026-05-06 20:28 | 50.34425 | 6.73457 | 24258 ft | 415 kts | 96° |
| 2026-05-06 20:28 | 50.34141 | 6.77936 | 23778 ft | 412 kts | 96° |
| 2026-05-06 20:28 | 50.33827 | 6.82338 | 23308 ft | 409 kts | 100° |
| 2026-05-06 20:29 | 50.33214 | 6.86669 | 22835 ft | 405 kts | 107° |
| 2026-05-06 20:29 | 50.32288 | 6.90751 | 22373 ft | 401 kts | 114° |
| 2026-05-06 20:29 | 50.31139 | 6.94717 | 21905 ft | 398 kts | 116° |
| 2026-05-06 20:29 | 50.29970 | 6.98578 | 21437 ft | 395 kts | 116° |
| 2026-05-06 20:30 | 50.28796 | 7.02461 | 21019 ft | 396 kts | 116° |
| 2026-05-06 20:30 | 50.26434 | 7.10333 | 20886 ft | 404 kts | 116° |
| 2026-05-06 20:30 | 50.25254 | 7.14271 | 20588 ft | 402 kts | 116° |
| 2026-05-06 20:31 | 50.24076 | 7.18201 | 19700 ft | 408 kts | 116° |
| 2026-05-06 20:31 | 50.22861 | 7.22242 | 18859 ft | 411 kts | 116° |
| 2026-05-06 20:31 | 50.21657 | 7.26241 | 18199 ft | 409 kts | 116° |
| 2026-05-06 20:31 | 50.20446 | 7.30258 | 17638 ft | 405 kts | 116° |
| 2026-05-06 20:32 | 50.19337 | 7.34243 | 17097 ft | 401 kts | 112° |
| 2026-05-06 20:32 | 50.18357 | 7.38294 | 16602 ft | 397 kts | 111° |
| 2026-05-06 20:32 | 50.17504 | 7.41883 | 16147 ft | 393 kts | 110° |
| 2026-05-06 20:32 | 50.16980 | 7.44093 | 15874 ft | 390 kts | 110° |
| 2026-05-06 20:33 | 50.16225 | 7.47269 | 15486 ft | 387 kts | 110° |
| 2026-05-06 20:33 | 50.15303 | 7.51132 | 15000 ft | 383 kts | 110° |
| 2026-05-06 20:33 | 50.14376 | 7.55002 | 14521 ft | 379 kts | 110° |
| 2026-05-06 20:33 | 50.13467 | 7.58786 | 14046 ft | 375 kts | 110° |
| 2026-05-06 20:34 | 50.12551 | 7.62589 | 13577 ft | 372 kts | 110° |
| 2026-05-06 20:34 | 50.11616 | 7.66282 | 13114 ft | 369 kts | 114° |
| 2026-05-06 20:34 | 50.10455 | 7.69826 | 12704 ft | 363 kts | 121° |
| 2026-05-06 20:34 | 50.09074 | 7.73151 | 12720 ft | 377 kts | 124° |
| 2026-05-06 20:35 | 50.07578 | 7.76527 | 12713 ft | 386 kts | 125° |
| 2026-05-06 20:35 | 50.06031 | 7.79980 | 12456 ft | 388 kts | 125° |
| 2026-05-06 20:35 | 50.04514 | 7.83368 | 11952 ft | 384 kts | 125° |
| 2026-05-06 20:35 | 50.02990 | 7.86776 | 11456 ft | 382 kts | 125° |
| 2026-05-06 20:36 | 50.01709 | 7.90314 | 11140 ft | 380 kts | 109° |
| 2026-05-06 20:36 | 50.01400 | 7.94370 | 10871 ft | 379 kts | 83° |
| 2026-05-06 20:36 | 50.02111 | 7.98253 | 10625 ft | 377 kts | 68° |
| 2026-05-06 20:36 | 50.03063 | 8.02063 | 10370 ft | 377 kts | 69° |
| 2026-05-06 20:37 | 50.03967 | 8.05843 | 10122 ft | 377 kts | 69° |
| 2026-05-06 20:37 | 50.04842 | 8.09692 | 9866 ft | 375 kts | 70° |
| 2026-05-06 20:37 | 50.05675 | 8.13489 | 9706 ft | 375 kts | 70° |
| 2026-05-06 20:37 | 50.06502 | 8.17339 | 9566 ft | 375 kts | 71° |
| 2026-05-06 20:38 | 50.07318 | 8.21188 | 9441 ft | 374 kts | 71° |
| 2026-05-06 20:38 | 50.08118 | 8.24991 | 9316 ft | 373 kts | 71° |
| 2026-05-06 20:38 | 50.08925 | 8.28846 | 9191 ft | 373 kts | 71° |
| 2026-05-06 20:38 | 50.09724 | 8.32678 | 9050 ft | 366 kts | 71° |
| 2026-05-06 20:39 | 50.10471 | 8.36272 | 8910 ft | 338 kts | 71° |
| 2026-05-06 20:39 | 50.11162 | 8.39616 | 8775 ft | 310 kts | 71° |
| 2026-05-06 20:39 | 50.11794 | 8.42670 | 8648 ft | 294 kts | 71° |
| 2026-05-06 20:39 | 50.12423 | 8.45707 | 8521 ft | 293 kts | 71° |
| 2026-05-06 20:40 | 50.13039 | 8.48687 | 8396 ft | 292 kts | 71° |
| 2026-05-06 20:40 | 50.13661 | 8.51707 | 8277 ft | 293 kts | 71° |
| 2026-05-06 20:40 | 50.14275 | 8.54693 | 8151 ft | 292 kts | 71° |
| 2026-05-06 20:40 | 50.14896 | 8.57720 | 8029 ft | 292 kts | 71° |
| 2026-05-06 20:41 | 50.15514 | 8.60731 | 7913 ft | 291 kts | 71° |
| 2026-05-06 20:41 | 50.16125 | 8.63711 | 7790 ft | 291 kts | 71° |
| 2026-05-06 20:41 | 50.16747 | 8.66746 | 7663 ft | 291 kts | 72° |
| 2026-05-06 20:41 | 50.17394 | 8.69700 | 7536 ft | 290 kts | 70° |
| 2026-05-06 20:42 | 50.18092 | 8.72668 | 7409 ft | 290 kts | 69° |
| 2026-05-06 20:42 | 50.18783 | 8.75588 | 7291 ft | 289 kts | 69° |
| 2026-05-06 20:42 | 50.19484 | 8.78544 | 7161 ft | 289 kts | 69° |
| 2026-05-06 20:42 | 50.20170 | 8.81453 | 7036 ft | 288 kts | 69° |
| 2026-05-06 20:43 | 50.20864 | 8.84398 | 6912 ft | 288 kts | 69° |
| 2026-05-06 20:43 | 50.21545 | 8.87296 | 6791 ft | 287 kts | 69° |
| 2026-05-06 20:43 | 50.22233 | 8.90232 | 6663 ft | 287 kts | 69° |
| 2026-05-06 20:43 | 50.22910 | 8.93120 | 6542 ft | 285 kts | 69° |
| 2026-05-06 20:44 | 50.23590 | 8.96054 | 6411 ft | 287 kts | 71° |
| 2026-05-06 20:44 | 50.23854 | 8.99078 | 6271 ft | 285 kts | 97° |
| 2026-05-06 20:44 | 50.23246 | 9.02002 | 5974 ft | 285 kts | 123° |
| 2026-05-06 20:44 | 50.21933 | 9.04246 | 5473 ft | 285 kts | 142° |
| 2026-05-06 20:45 | 50.20329 | 9.06098 | 4960 ft | 285 kts | 148° |
| 2026-05-06 20:45 | 50.18590 | 9.07362 | 4430 ft | 275 kts | 173° |
| 2026-05-06 20:45 | 50.16754 | 9.07099 | 3981 ft | 258 kts | 204° |
| 2026-05-06 20:45 | 50.15341 | 9.05622 | 3846 ft | 244 kts | 231° |
| 2026-05-06 20:46 | 50.14489 | 9.03349 | 3852 ft | 243 kts | 252° |
| 2026-05-06 20:46 | 50.13948 | 9.00882 | 3846 ft | 244 kts | 253° |
| 2026-05-06 20:46 | 50.13393 | 8.98367 | 3844 ft | 244 kts | 252° |
| 2026-05-06 20:46 | 50.12820 | 8.95855 | 3840 ft | 244 kts | 252° |
| 2026-05-06 20:47 | 50.12248 | 8.93390 | 3840 ft | 244 kts | 251° |
| 2026-05-06 20:47 | 50.11665 | 8.90896 | 3839 ft | 244 kts | 251° |
| 2026-05-06 20:47 | 50.11097 | 8.88481 | 3827 ft | 233 kts | 251° |
| 2026-05-06 20:47 | 50.10554 | 8.86178 | 3814 ft | 218 kts | 251° |
| 2026-05-06 20:48 | 50.10054 | 8.84056 | 3796 ft | 204 kts | 252° |
| 2026-05-06 20:48 | 50.09575 | 8.82031 | 3781 ft | 195 kts | 252° |
| 2026-05-06 20:48 | 50.09114 | 8.80071 | 3782 ft | 195 kts | 252° |
| 2026-05-06 20:48 | 50.08643 | 8.78072 | 3588 ft | 198 kts | 252° |
| 2026-05-06 20:49 | 50.08170 | 8.76067 | 3296 ft | 197 kts | 252° |
| 2026-05-06 20:49 | 50.07692 | 8.74052 | 2887 ft | 201 kts | 253° |
| 2026-05-06 20:49 | 50.07215 | 8.72037 | 2507 ft | 200 kts | 253° |
| 2026-05-06 20:49 | 50.06742 | 8.70045 | 2141 ft | 189 kts | 253° |
| 2026-05-06 20:50 | 50.06303 | 8.68213 | 1770 ft | 177 kts | 253° |
| 2026-05-06 20:50 | 50.05885 | 8.66466 | 1434 ft | 168 kts | 252° |
| 2026-05-06 20:50 | 50.05471 | 8.64765 | 1249 ft | 167 kts | 251° |
| 2026-05-06 20:50 | 50.05074 | 8.63124 | 999 ft | 159 kts | 252° |
| 2026-05-06 20:51 | 50.04699 | 8.61563 | 768 ft | 148 kts | 252° |
| 2026-05-06 20:51 | 50.04356 | 8.60123 | 591 ft | 141 kts | 251° |
| 2026-05-06 20:51 | 50.04016 | 8.58696 | 438 ft | 139 kts | 251° |
| 2026-05-06 20:51 | 50.03686 | 8.57319 | 356 ft | 131 kts | 252° |
| 2026-05-06 20:52 | 50.03428 | 8.56221 | 347 ft | 82 kts | 249° |
| 2026-05-06 20:52 | 50.03324 | 8.55808 | 344 ft | 20 kts | 251° |
| 2026-05-06 20:52 | 50.03309 | 8.55585 | 343 ft | 21 kts | 273° |
| 2026-05-06 20:52 | 50.03329 | 8.55362 | 343 ft | 20 kts | 279° |
| 2026-05-06 20:53 | 50.03345 | 8.55218 | 342 ft | 0 kts | 280° |
| 2026-05-06 20:54 | 50.03346 | 8.55212 | 342 ft | 0 kts | 280° |
| 2026-05-06 20:55 | 50.03351 | 8.55171 | 342 ft | 7 kts | 280° |
| 2026-05-06 20:55 | 50.03361 | 8.55085 | 342 ft | 9 kts | 280° |
| 2026-05-06 20:55 | 50.03369 | 8.54969 | 341 ft | 14 kts | 262° |
| 2026-05-06 20:55 | 50.03329 | 8.54783 | 340 ft | 19 kts | 250° |
| 2026-05-06 20:56 | 50.03285 | 8.54598 | 339 ft | 15 kts | 250° |
| 2026-05-06 20:56 | 50.03278 | 8.54487 | 339 ft | 7 kts | 325° |
| 2026-05-06 20:56 | 50.03333 | 8.54463 | 339 ft | 8 kts | 347° |
| 2026-05-06 20:56 | 50.03394 | 8.54435 | 339 ft | 9 kts | 343° |
| 2026-05-06 20:57 | 50.03463 | 8.54399 | 340 ft | 10 kts | 340° |
| 2026-05-06 20:57 | 50.03541 | 8.54348 | 340 ft | 13 kts | 338° |
| 2026-05-06 20:57 | 50.03627 | 8.54309 | 341 ft | 12 kts | 4° |
| 2026-05-06 20:57 | 50.03679 | 8.54407 | 342 ft | 13 kts | 69° |
| 2026-05-06 20:58 | 50.03719 | 8.54574 | 343 ft | 18 kts | 71° |
| 2026-05-06 20:58 | 50.03764 | 8.54762 | 344 ft | 19 kts | 69° |
| 2026-05-06 20:58 | 50.03818 | 8.54983 | 345 ft | 22 kts | 70° |
| 2026-05-06 20:58 | 50.03869 | 8.55200 | 346 ft | 21 kts | 70° |
| 2026-05-06 20:59 | 50.03919 | 8.55409 | 348 ft | 20 kts | 70° |
| 2026-05-06 20:59 | 50.03968 | 8.55616 | 348 ft | 19 kts | 70° |
| 2026-05-06 20:59 | 50.04015 | 8.55810 | 349 ft | 19 kts | 71° |
| 2026-05-06 20:59 | 50.04061 | 8.56001 | 350 ft | 18 kts | 69° |
| 2026-05-06 21:00 | 50.04105 | 8.56189 | 351 ft | 18 kts | 69° |
| 2026-05-06 21:00 | 50.04149 | 8.56369 | 352 ft | 17 kts | 70° |
| 2026-05-06 21:00 | 50.04190 | 8.56545 | 353 ft | 17 kts | 70° |
| 2026-05-06 21:00 | 50.04231 | 8.56716 | 355 ft | 13 kts | 70° |
| 2026-05-06 21:01 | 50.04293 | 8.56812 | 355 ft | 12 kts | 13° |
| 2026-05-06 21:01 | 50.04386 | 8.56838 | 356 ft | 13 kts | 10° |
| 2026-05-06 21:01 | 50.04451 | 8.56856 | 357 ft | 2 kts | 12° |
| 2026-05-06 21:01 | 50.04470 | 8.56862 | 357 ft | 3 kts | 12° |
| 2026-05-06 21:02 | 50.04484 | 8.56866 | 357 ft | 5 kts | 12° |
| 2026-05-06 21:02 | 50.04531 | 8.56882 | 357 ft | 10 kts | 14° |
| 2026-05-06 21:02 | 50.04612 | 8.56914 | 358 ft | 13 kts | 15° |
| 2026-05-06 21:02 | 50.04693 | 8.56961 | 358 ft | 9 kts | 25° |
| 2026-05-06 21:03 | 50.04740 | 8.56949 | 358 ft | 8 kts | 298° |
| 2026-05-06 21:03 | 50.04752 | 8.56884 | 358 ft | 3 kts | 295° |
| 2026-05-06 21:03 | 50.04754 | 8.56878 | 358 ft | 0 kts | 296° |